createdAt,value
2024-01-24T00:07:01.108Z,1.0
2024-01-24T00:17:01.124Z,0.8
2024-01-24T00:22:01.079Z,1.0
2024-01-24T00:27:01.542Z,0.6
2024-01-24T00:37:01.088Z,0.4
2024-01-24T00:52:01.099Z,0.6
2024-01-24T00:57:01.060Z,0.4
2024-01-24T01:02:01.071Z,0.7
2024-01-24T01:12:01.102Z,0.5
2024-01-24T01:22:01.160Z,0.4
2024-01-24T01:27:01.060Z,0.2
2024-01-24T01:42:01.097Z,0.2
2024-01-24T01:57:02.393Z,0.2
2024-01-24T02:02:01.110Z,0.4
2024-01-24T02:07:02.052Z,0.2
2024-01-24T02:22:01.134Z,0.2
2024-01-24T02:47:01.099Z,0.2
2024-01-24T02:52:01.093Z,0.6
2024-01-24T02:57:01.093Z,0.8
2024-01-24T03:12:01.179Z,0.9
2024-01-24T03:17:01.072Z,0.5
2024-01-24T03:22:01.081Z,0.9
2024-01-24T03:27:01.086Z,1.2
2024-01-24T03:33:01.193Z,1.5
2024-01-24T03:38:01.059Z,1.4
2024-01-24T03:43:01.078Z,1.6
2024-01-24T03:48:01.114Z,1.2
2024-01-24T03:53:01.089Z,0.8
2024-01-24T03:58:01.106Z,0.6
2024-01-24T04:03:01.060Z,0.5
2024-01-24T04:08:01.056Z,0.6
2024-01-24T04:18:01.110Z,0.8
2024-01-24T04:28:02.111Z,0.7
2024-01-24T04:33:01.122Z,0.5
2024-01-24T04:38:01.095Z,0.3
2024-01-24T04:48:01.935Z,0.5
2024-01-24T04:53:01.074Z,1.0
2024-01-24T04:58:01.116Z,0.9
2024-01-24T05:08:01.081Z,0.7
2024-01-24T05:13:01.095Z,0.6
2024-01-24T05:28:01.076Z,0.2
2024-01-24T05:43:01.097Z,0.2
2024-01-24T05:53:01.081Z,0.1
2024-01-24T06:08:01.071Z,0.1
2024-01-24T06:48:01.149Z,0.2
2024-01-24T07:03:01.527Z,0.2
2024-01-24T07:13:01.224Z,0.1
2024-01-24T07:18:01.113Z,0.4
2024-01-24T07:23:01.098Z,0.5
2024-01-24T07:38:01.105Z,0.5
2024-01-24T07:43:01.163Z,0.2
2024-01-24T08:18:01.190Z,0.1
2024-01-24T08:23:01.811Z,0.2
2024-01-24T08:38:02.330Z,0.2
2024-01-24T08:43:01.078Z,0.1
2024-01-24T08:53:01.070Z,0.2
2024-01-24T09:08:01.084Z,0.2
2024-01-24T09:23:01.085Z,0.2
2024-01-24T09:38:01.653Z,0.2
2024-01-24T09:53:03.319Z,0.2
2024-01-24T10:08:01.530Z,0.2
2024-01-24T10:38:01.905Z,0.6
2024-01-24T10:43:07.746Z,1.0
2024-01-24T10:58:01.240Z,2.2
2024-01-24T11:03:01.171Z,1.6
2024-01-24T11:08:05.863Z,1.2
2024-01-24T11:13:01.143Z,1.4
2024-01-24T11:18:01.099Z,1.8
2024-01-24T11:23:01.103Z,1.0
2024-01-24T11:28:02.136Z,2.4
2024-01-24T11:33:01.178Z,2.6
2024-01-24T11:43:01.150Z,2.8
2024-01-24T11:48:01.107Z,3.6
2024-01-24T11:53:01.090Z,2.8
2024-01-24T11:58:01.124Z,3.6
2024-01-24T12:03:01.838Z,4.2
2024-01-24T12:08:01.062Z,3.6
2024-01-24T12:13:02.866Z,3.4
2024-01-24T12:18:01.162Z,3.0
2024-01-24T12:23:06.081Z,2.4
2024-01-24T12:28:01.232Z,1.6
2024-01-24T12:33:01.076Z,1.8
2024-01-24T12:38:01.069Z,1.2
2024-01-24T12:43:01.120Z,1.8
2024-01-24T12:48:01.141Z,2.0
2024-01-24T12:58:01.076Z,2.5
2024-01-24T13:03:01.087Z,2.3
2024-01-24T13:08:01.110Z,1.8
2024-01-24T13:13:01.098Z,3.0
2024-01-24T13:23:01.663Z,2.9
2024-01-24T13:28:01.133Z,3.7
2024-01-24T13:33:01.102Z,4.0
2024-01-24T13:38:06.135Z,3.3
2024-01-24T13:43:01.156Z,4.0
2024-01-24T13:48:01.106Z,4.2
2024-01-24T13:53:01.083Z,3.8
2024-01-24T13:58:02.581Z,4.7
2024-01-24T14:03:01.095Z,4.4
2024-01-24T14:08:01.102Z,4.6
2024-01-24T14:13:01.156Z,4.3
2024-01-24T14:18:01.122Z,4.5
2024-01-24T14:23:01.079Z,4.0
2024-01-24T14:28:01.159Z,3.8
2024-01-24T14:33:01.129Z,3.7
2024-01-24T14:38:01.213Z,3.6
2024-01-24T14:43:01.097Z,3.8
2024-01-24T14:49:01.141Z,3.6
2024-01-24T14:54:01.116Z,3.9
2024-01-24T15:04:01.133Z,4.2
2024-01-24T15:09:01.097Z,4.5
2024-01-24T15:14:01.085Z,5.0
2024-01-24T15:19:01.127Z,4.5
2024-01-24T15:34:01.164Z,4.0
2024-01-24T15:39:01.142Z,3.8
2024-01-24T15:44:01.073Z,3.7
2024-01-24T15:49:01.165Z,3.1
2024-01-24T15:54:01.319Z,3.6
2024-01-24T15:59:01.092Z,3.7
2024-01-24T16:04:01.144Z,3.4
2024-01-24T16:09:01.092Z,3.7
2024-01-24T16:14:01.838Z,4.5
2024-01-24T16:19:01.109Z,3.7
2024-01-24T16:24:01.178Z,3.6
2024-01-24T16:29:01.074Z,3.8
2024-01-24T16:34:01.149Z,4.2
2024-01-24T16:39:01.078Z,3.8
2024-01-24T16:44:01.081Z,4.3
2024-01-24T16:49:01.100Z,4.5
2024-01-24T16:59:01.133Z,4.4
2024-01-24T17:04:06.167Z,4.8
2024-01-24T17:09:01.068Z,5.1
2024-01-24T17:14:01.099Z,5.0
2024-01-24T17:19:01.123Z,5.1
2024-01-24T17:24:01.116Z,5.2
2024-01-24T17:34:01.259Z,5.0
2024-01-24T17:39:01.114Z,5.3
2024-01-24T17:44:01.073Z,5.0
2024-01-24T17:49:01.106Z,5.1
2024-01-24T17:54:01.056Z,4.0
2024-01-24T17:59:01.095Z,4.2
2024-01-24T18:04:01.084Z,3.8
2024-01-24T18:09:01.836Z,4.5
2024-01-24T18:14:01.063Z,4.6
2024-01-24T18:19:01.202Z,5.2
2024-01-24T18:24:01.632Z,5.8
2024-01-24T18:29:01.116Z,5.6
2024-01-24T18:34:01.112Z,5.4
2024-01-24T18:44:02.775Z,5.3
2024-01-24T18:49:03.499Z,4.6
2024-01-24T19:00:02.840Z,4.6
2024-01-24T19:05:01.121Z,4.3
2024-01-24T19:10:01.116Z,5.2
2024-01-24T19:15:02.196Z,4.8
2024-01-24T19:20:01.192Z,5.0
2024-01-24T19:25:01.758Z,4.7
2024-01-24T19:30:01.884Z,4.4
2024-01-24T19:35:01.064Z,3.4
2024-01-24T19:40:01.210Z,3.6
2024-01-24T19:45:01.894Z,3.4
2024-01-24T19:50:01.083Z,3.6
2024-01-24T19:55:01.121Z,3.4
2024-01-24T20:00:02.070Z,3.2
2024-01-24T20:05:01.086Z,2.9
2024-01-24T20:10:01.199Z,2.4
2024-01-24T20:15:02.288Z,2.6
2024-01-24T20:20:01.207Z,3.3
2024-01-24T20:25:06.101Z,3.4
2024-01-24T20:30:01.594Z,3.2
2024-01-24T20:35:01.155Z,4.1
2024-01-24T20:40:01.164Z,3.5
2024-01-24T20:45:01.546Z,3.2
2024-01-24T20:50:01.165Z,3.4
2024-01-24T20:55:06.142Z,3.6
2024-01-24T21:00:02.298Z,3.2
2024-01-24T21:05:01.196Z,4.0
2024-01-24T21:15:11.404Z,4.7
2024-01-24T21:20:01.087Z,5.8
2024-01-24T21:30:01.943Z,5.6
2024-01-24T21:35:01.109Z,5.8
2024-01-24T21:40:01.157Z,4.9
2024-01-24T21:45:01.908Z,4.8
2024-01-24T21:50:01.220Z,5.8
2024-01-24T21:55:01.255Z,4.9
2024-01-24T22:00:02.274Z,4.7
2024-01-24T22:05:01.116Z,5.1
2024-01-24T22:10:01.299Z,4.2
2024-01-24T22:15:03.482Z,3.2
2024-01-24T22:20:01.137Z,3.4
2024-01-24T22:25:01.205Z,3.6
2024-01-24T22:30:02.084Z,3.6
2024-01-24T22:35:01.228Z,4.0
2024-01-24T22:40:01.206Z,4.6
2024-01-24T22:45:02.893Z,4.7
2024-01-24T22:50:01.301Z,4.4
2024-01-24T22:55:01.265Z,4.1
2024-01-24T23:00:02.117Z,3.9
2024-01-24T23:05:01.333Z,3.4
2024-01-24T23:15:04.728Z,3.8
2024-01-24T23:20:02.762Z,3.9
2024-01-24T23:25:01.235Z,4.8
2024-01-24T23:30:02.729Z,5.2
2024-01-24T23:35:02.421Z,5.4
2024-01-24T23:40:02.164Z,5.7
2024-01-24T23:45:02.176Z,5.7
2024-01-24T23:50:01.198Z,4.6
2024-01-24T23:55:01.174Z,4.0
